CheckWX is a tool to help pilots better visualize weather data.  It is not intended as a substitute for an official pre-flight weather briefing.

19:29:46 UTC

KCFS METAR
Tuscola Area Airport
Caro, Michigan, USA
Current

34 mins ago

KCFS 221856Z AUTO 18007KT 160V220 10SM CLR 02/M05 A3042 RMK AO2 T00191051
Observed
Feb-22 @ 18:56 UTC
Wind
  • 180° at 7 KTS
Visibility
10 SM
Flight Rules
VFR
Cloud Levels
  • Clear skies
Temperature
C / 36°F
Dewpoint
-5°C / 23°F
Humidity
60%
Altimeter
30.42" Hg
Pressure
1030.11 hPa
Previous

54 mins ago

KCFS 221836Z AUTO 36004KT 10SM CLR 02/M04 A3045 RMK AO2 T00151039
Observed
Feb-22 @ 18:36 UTC
Wind
  • 360° at 4 KTS
Visibility
10 SM
Flight Rules
VFR
Cloud Levels
  • Clear skies
Temperature
C / 36°F
Dewpoint
-4°C / 25°F
Humidity
65%
Altimeter
30.45" Hg
Pressure
1031.11 hPa
Previous

1 hour ago

KCFS 221816Z AUTO 35004KT 10SM CLR 01/M04 A3046 RMK AO2 T00101040
Observed
Feb-22 @ 18:16 UTC
Wind
  • 350° at 4 KTS
Visibility
10 SM
Flight Rules
VFR
Cloud Levels
  • Clear skies
Temperature
C / 34°F
Dewpoint
-4°C / 25°F
Humidity
70%
Altimeter
30.46" Hg
Pressure
1031.51 hPa